Time;durP1;ratioP1;P1;durP2;ratioP2;P2;SDS_P1;SDS_P2;PMS_P1;PMS_P2;Temp;Humidity;BMP_temperature;BMP_pressure;BME280_temperature;BME280_humidity;BME280_pressure;Samples;Min_cycle;Max_cycle;Signal;HPM_P1;HPM_P2
2024/02/01 00:00:04;;;;;;;2.90;2.40;;;;;10.00;99743.00;;;;5035335;28;20045;-69
2024/02/01 00:02:31;;;;;;;6.25;3.67;;;;;10.00;99732.00;;;;5034235;28;20064;-70
2024/02/01 00:04:58;;;;;;;3.70;2.42;;;;;10.00;99738.00;;;;5034794;28;20438;-71
2024/02/01 00:07:24;;;;;;;6.75;2.92;;;;;10.00;99743.00;;;;5035088;28;20049;-70
2024/02/01 00:09:51;;;;;;;5.38;2.63;;;;;10.00;99747.00;;;;5034909;28;20119;-70
2024/02/01 00:12:18;;;;;;;5.30;3.65;;;;;10.00;99747.00;;;;5033980;28;20118;-71
2024/02/01 00:14:44;;;;;;;5.63;3.25;;;;;9.90;99745.00;;;;5034424;28;20083;-69
2024/02/01 00:17:11;;;;;;;4.55;3.10;;;;;9.90;99762.00;;;;5035106;28;20060;-69
2024/02/01 00:19:37;;;;;;;4.32;2.92;;;;;9.90;99765.00;;;;5034843;28;20125;-70
2024/02/01 00:22:04;;;;;;;6.55;3.38;;;;;9.80;99768.00;;;;5034825;28;20060;-69
2024/02/01 00:24:38;;;;;;;11.30;5.03;;;;;9.80;99751.00;;;;5033026;28;20453;-71
2024/02/01 00:27:05;;;;;;;7.50;3.45;;;;;9.80;99739.00;;;;5034726;28;20056;-69
2024/02/01 00:29:31;;;;;;;5.88;3.80;;;;;9.80;99732.00;;;;5033067;28;20064;-70
2024/02/01 00:31:58;;;;;;;9.75;5.65;;;;;9.90;99720.00;;;;5034926;28;20045;-70
2024/02/01 00:34:25;;;;;;;11.57;4.70;;;;;9.90;99719.00;;;;5034562;28;20046;-71
2024/02/01 00:36:51;;;;;;;4.10;2.88;;;;;10.00;99719.00;;;;5033287;28;20045;-69
2024/02/01 00:39:18;;;;;;;30.23;8.45;;;;;10.10;99721.00;;;;5033272;28;20053;-68
2024/02/01 00:41:45;;;;;;;76.97;17.75;;;;;10.10;99716.00;;;;5034546;28;20053;-69
2024/02/01 00:44:11;;;;;;;50.55;12.75;;;;;10.10;99716.00;;;;5033675;28;20092;-69
2024/02/01 00:46:38;;;;;;;11.13;4.50;;;;;10.10;99719.00;;;;5033206;28;20153;-70
2024/02/01 00:49:05;;;;;;;23.73;8.25;;;;;10.10;99729.00;;;;5034251;28;20037;-69
2024/02/01 00:51:31;;;;;;;4.70;3.10;;;;;10.10;99730.00;;;;5034544;28;20067;-69
2024/02/01 00:53:58;;;;;;;6.47;3.25;;;;;10.00;99734.00;;;;5033683;28;20041;-69
2024/02/01 00:56:25;;;;;;;4.97;3.90;;;;;9.90;99736.00;;;;5033202;28;20518;-69
2024/02/01 00:58:51;;;;;;;6.38;3.90;;;;;9.80;99726.00;;;;5034657;28;20042;-71
2024/02/01 01:01:18;;;;;;;4.88;3.70;;;;;9.70;99724.00;;;;5034938;28;20045;-70
2024/02/01 01:03:44;;;;;;;6.72;4.05;;;;;9.70;99707.00;;;;5033743;28;20072;-69
2024/02/01 01:06:11;;;;;;;7.13;4.45;;;;;9.60;99706.00;;;;5034120;28;20124;-69
2024/02/01 01:08:38;;;;;;;5.97;3.70;;;;;9.60;99713.00;;;;5032811;28;20064;-69
2024/02/01 01:11:04;;;;;;;8.25;4.18;;;;;9.50;99707.00;;;;5033957;28;20045;-68
2024/02/01 01:13:31;;;;;;;6.90;4.38;;;;;9.50;99718.00;;;;5032041;28;20050;-69
2024/02/01 01:15:57;;;;;;;5.82;4.20;;;;;9.50;99704.00;;;;5033799;28;20053;-69
2024/02/01 01:18:24;;;;;;;6.20;4.60;;;;;9.50;99714.00;;;;5033788;28;20045;-69
2024/02/01 01:20:51;;;;;;;7.75;4.82;;;;;9.40;99719.00;;;;5032331;28;20060;-70
2024/02/01 01:23:17;;;;;;;5.70;4.57;;;;;9.40;99718.00;;;;5033942;28;20133;-71
2024/02/01 01:25:44;;;;;;;6.22;4.57;;;;;9.40;99709.00;;;;5033107;28;20046;-71
2024/02/01 01:28:11;;;;;;;6.60;4.75;;;;;9.40;99721.00;;;;5032600;28;20069;-71
2024/02/01 01:30:37;;;;;;;7.47;4.78;;;;;9.40;99725.00;;;;5033690;28;20112;-70
2024/02/01 01:33:04;;;;;;;5.80;4.57;;;;;9.30;99722.00;;;;5033726;28;20060;-69
2024/02/01 01:35:30;;;;;;;7.38;4.68;;;;;9.40;99734.00;;;;5032027;28;20144;-69
2024/02/01 01:37:57;;;;;;;8.48;5.38;;;;;9.30;99727.00;;;;5032356;28;20144;-69
2024/02/01 01:40:24;;;;;;;7.20;5.07;;;;;9.20;99732.00;;;;5033266;28;20065;-69
2024/02/01 01:42:51;;;;;;;10.52;5.85;;;;;9.20;99738.00;;;;5033454;28;20072;-69
2024/02/01 01:45:17;;;;;;;6.22;5.35;;;;;9.20;99735.00;;;;5033073;28;20491;-69
2024/02/01 01:47:44;;;;;;;7.63;5.40;;;;;9.20;99734.00;;;;5033459;28;20049;-70
2024/02/01 01:50:11;;;;;;;9.98;5.35;;;;;9.20;99728.00;;;;5035411;28;20531;-71
2024/02/01 01:52:40;;;;;;;7.88;5.90;;;;;9.10;99718.00;;;;5033934;28;20048;-69
2024/02/01 01:55:08;;;;;;;6.63;5.70;;;;;9.20;99726.00;;;;5034651;28;20041;-69
2024/02/01 01:57:37;;;;;;;10.98;6.00;;;;;9.20;99717.00;;;;5034898;28;20132;-71
2024/02/01 02:00:05;;;;;;;8.35;5.38;;;;;9.20;99712.00;;;;5020779;28;20077;-71
2024/02/01 02:02:32;;;;;;;8.82;5.90;;;;;9.20;99727.00;;;;5038651;28;20433;-70
2024/02/01 02:04:59;;;;;;;10.13;6.15;;;;;9.10;99723.00;;;;5037662;28;20041;-69
2024/02/01 02:07:26;;;;;;;8.30;6.35;;;;;9.10;99715.00;;;;5036698;28;20037;-70
2024/02/01 02:09:54;;;;;;;7.00;5.78;;;;;9.00;99708.00;;;;5036723;28;20049;-71
2024/02/01 02:12:21;;;;;;;8.82;6.10;;;;;9.00;99704.00;;;;5034733;28;20103;-69
2024/02/01 02:15:01;;;;;;;7.05;5.55;;;;;8.90;99697.00;;;;5036055;28;20087;-70
2024/02/01 02:17:29;;;;;;;7.60;5.90;;;;;8.90;99695.00;;;;5034026;28;20049;-70
2024/02/01 02:20:15;;;;;;;9.90;6.28;;;;;8.90;99680.00;;;;5015403;28;20045;-68
2024/02/01 02:22:46;;;;;;;10.15;7.03;;;;;8.90;99685.00;;;;5032679;28;20042;-69
2024/02/01 02:25:13;;;;;;;8.20;5.75;;;;;8.90;99688.00;;;;5030961;28;20059;-69
2024/02/01 02:27:42;;;;;;;10.32;5.65;;;;;8.90;99676.00;;;;5032525;28;20045;-69
2024/02/01 02:30:11;;;;;;;8.88;6.00;;;;;8.90;99679.00;;;;5015020;28;20049;-69
2024/02/01 02:32:39;;;;;;;7.00;5.78;;;;;9.00;99690.00;;;;5033361;28;20128;-69
2024/02/01 02:35:13;;;;;;;7.10;5.82;;;;;9.00;99705.00;;;;5030692;28;20049;-67
2024/02/01 02:37:47;;;;;;;7.72;6.25;;;;;8.90;99699.00;;;;5031287;28;20050;-69
2024/02/01 02:40:19;;;;;;;7.32;5.85;;;;;8.90;99691.00;;;;5031731;28;20044;-69
2024/02/01 02:42:46;;;;;;;7.45;5.65;;;;;8.90;99696.00;;;;5032693;28;20041;-70
2024/02/01 02:45:13;;;;;;;12.32;5.38;;;;;8.90;99702.00;;;;5030813;28;20467;-69
2024/02/01 02:47:40;;;;;;;6.45;4.78;;;;;8.90;99692.00;;;;5032531;28;20041;-69
2024/02/01 02:50:08;;;;;;;6.05;4.88;;;;;9.00;99691.00;;;;5031333;28;20068;-68
2024/02/01 02:52:36;;;;;;;7.65;4.82;;;;;9.00;99692.00;;;;5031186;28;20041;-68
2024/02/01 02:55:04;;;;;;;9.10;5.07;;;;;8.90;99688.00;;;;5030847;28;20103;-69
2024/02/01 02:57:32;;;;;;;8.32;4.47;;;;;8.90;99693.00;;;;5033217;28;20038;-69
2024/02/01 02:59:58;;;;;;;9.50;5.05;;;;;8.90;99687.00;;;;5014987;28;20045;-68
2024/02/01 03:02:25;;;;;;;10.98;5.35;;;;;8.80;99680.00;;;;5031260;28;20046;-68
2024/02/01 03:04:52;;;;;;;8.50;4.75;;;;;8.80;99674.00;;;;5031647;28;20474;-70
2024/02/01 03:07:18;;;;;;;8.27;4.38;;;;;8.70;99684.00;;;;5032694;28;20051;-70
2024/02/01 03:09:45;;;;;;;5.72;4.18;;;;;8.70;99671.00;;;;5031020;28;20037;-68
2024/02/01 03:12:11;;;;;;;6.70;4.25;;;;;8.70;99675.00;;;;5037969;28;20045;-70
2024/02/01 03:14:41;;;;;;;8.85;4.35;;;;;8.70;99667.00;;;;5039301;28;20056;-70
2024/02/01 03:17:09;;;;;;;7.80;4.18;;;;;8.70;99659.00;;;;5037263;28;20443;-68
2024/02/01 03:19:38;;;;;;;6.57;4.18;;;;;8.70;99663.00;;;;5037925;28;20464;-70
2024/02/01 03:22:05;;;;;;;5.80;3.58;;;;;8.70;99659.00;;;;5037335;28;20054;-70
2024/02/01 03:24:32;;;;;;;6.82;4.38;;;;;8.70;99669.00;;;;5044474;28;20042;-69
2024/02/01 03:26:59;;;;;;;3.95;3.40;;;;;8.70;99661.00;;;;5045007;28;20050;-70
2024/02/01 03:29:28;;;;;;;6.53;3.63;;;;;8.70;99656.00;;;;5043433;28;20073;-69
2024/02/01 03:31:55;;;;;;;5.22;3.45;;;;;8.70;99650.00;;;;5037146;28;20048;-69
2024/02/01 03:34:21;;;;;;;4.88;3.60;;;;;8.80;99647.00;;;;5042551;28;20403;-70
2024/02/01 03:36:52;;;;;;;5.82;3.35;;;;;8.70;99643.00;;;;5038252;28;20045;-68
2024/02/01 03:39:25;;;;;;;6.07;3.95;;;;;8.70;99649.00;;;;5039497;28;20120;-71
2024/02/01 03:41:54;;;;;;;7.50;4.50;;;;;8.70;99646.00;;;;5036183;28;20050;-69
2024/02/01 03:44:21;;;;;;;5.95;3.40;;;;;8.70;99651.00;;;;5038022;28;20048;-69
2024/02/01 03:46:51;;;;;;;6.18;3.75;;;;;8.80;99652.00;;;;5038801;28;20050;-70
2024/02/01 03:49:19;;;;;;;5.32;3.30;;;;;8.80;99648.00;;;;5038767;28;20046;-69
2024/02/01 03:51:46;;;;;;;5.20;3.70;;;;;8.80;99663.00;;;;5027581;28;20045;-69
2024/02/01 03:54:14;;;;;;;5.03;3.67;;;;;8.80;99648.00;;;;5032818;28;20049;-71
2024/02/01 03:56:41;;;;;;;5.13;4.28;;;;;8.80;99653.00;;;;5018831;28;20049;-69
2024/02/01 03:59:09;;;;;;;4.47;3.47;;;;;8.80;99654.00;;;;5019025;28;20554;-70
2024/02/01 04:01:40;;;;;;;8.82;3.65;;;;;8.80;99648.00;;;;5035454;28;20042;-68
2024/02/01 04:04:07;;;;;;;6.18;3.72;;;;;8.80;99647.00;;;;5035826;28;20091;-69
2024/02/01 04:06:37;;;;;;;5.05;3.75;;;;;8.80;99643.00;;;;5040484;28;20561;-69
2024/02/01 04:09:04;;;;;;;8.35;4.50;;;;;8.90;99629.00;;;;5037756;28;20064;-70
2024/02/01 04:11:31;;;;;;;5.78;4.15;;;;;8.90;99640.00;;;;5035647;28;20544;-70
2024/02/01 04:13:58;;;;;;;5.38;4.10;;;;;8.90;99638.00;;;;5034718;28;20033;-69
2024/02/01 04:16:25;;;;;;;7.75;4.25;;;;;8.80;99638.00;;;;5035212;28;20550;-68
2024/02/01 04:18:52;;;;;;;5.55;3.95;;;;;8.80;99637.00;;;;5034922;28;20045;-68
2024/02/01 04:21:19;;;;;;;5.63;4.20;;;;;8.80;99633.00;;;;5017557;28;20045;-69
2024/02/01 04:23:46;;;;;;;14.57;4.10;;;;;8.80;99629.00;;;;5034784;28;20045;-69
2024/02/01 04:26:15;;;;;;;6.30;4.25;;;;;8.70;99625.00;;;;5035075;28;20049;-68
2024/02/01 04:28:43;;;;;;;6.10;4.40;;;;;8.70;99623.00;;;;5017114;28;20096;-69
2024/02/01 04:31:10;;;;;;;6.03;4.53;;;;;8.70;99634.00;;;;5034947;28;20041;-68
2024/02/01 04:33:40;;;;;;;8.52;4.05;;;;;8.70;99636.00;;;;5034327;28;20493;-70
2024/02/01 04:36:07;;;;;;;6.25;4.55;;;;;8.70;99636.00;;;;5034681;28;20037;-68
2024/02/01 04:38:36;;;;;;;6.00;4.03;;;;;8.80;99652.00;;;;5034689;28;20041;-68
2024/02/01 04:41:07;;;;;;;7.20;4.00;;;;;8.80;99648.00;;;;5017616;28;20095;-69
2024/02/01 04:43:33;;;;;;;10.63;4.72;;;;;8.80;99637.00;;;;5037443;28;20499;-68
2024/02/01 04:46:00;;;;;;;6.38;3.95;;;;;8.80;99635.00;;;;5034536;28;20076;-68
2024/02/01 04:48:28;;;;;;;5.63;4.72;;;;;8.90;99636.00;;;;5034680;28;20073;-69
2024/02/01 04:50:55;;;;;;;9.27;5.68;;;;;8.90;99640.00;;;;5033207;28;20443;-69
2024/02/01 04:53:22;;;;;;;9.57;5.55;;;;;8.80;99629.00;;;;5034317;28;20067;-68
2024/02/01 04:55:50;;;;;;;7.03;4.53;;;;;8.90;99631.00;;;;5034199;28;20494;-68
2024/02/01 04:58:19;;;;;;;7.95;4.68;;;;;8.90;99645.00;;;;5034253;28;20056;-68
2024/02/01 05:00:46;;;;;;;9.13;5.63;;;;;8.90;99641.00;;;;5034163;28;20449;-70
2024/02/01 05:03:16;;;;;;;7.97;4.43;;;;;8.90;99641.00;;;;5033199;28;20474;-70
2024/02/01 05:05:45;;;;;;;6.30;4.88;;;;;8.90;99644.00;;;;5032962;28;20114;-68
2024/02/01 05:08:15;;;;;;;8.38;5.13;;;;;8.90;99636.00;;;;5034670;28;20049;-70
2024/02/01 05:10:45;;;;;;;7.25;4.20;;;;;9.00;99647.00;;;;5034468;28;20076;-70
2024/02/01 05:13:14;;;;;;;6.82;4.32;;;;;9.00;99642.00;;;;5034984;28;20128;-69
2024/02/01 05:15:46;;;;;;;5.95;4.22;;;;;9.00;99638.00;;;;5035518;28;20051;-70
2024/02/01 05:18:14;;;;;;;6.00;4.95;;;;;9.10;99645.00;;;;5037008;28;20077;-68
2024/02/01 05:20:42;;;;;;;7.90;5.47;;;;;9.10;99640.00;;;;5036622;28;20140;-69
2024/02/01 05:23:09;;;;;;;5.15;4.47;;;;;9.10;99640.00;;;;5035809;28;20124;-69
2024/02/01 05:25:40;;;;;;;8.48;4.85;;;;;9.10;99644.00;;;;5032587;28;20095;-69
2024/02/01 05:28:10;;;;;;;7.25;4.50;;;;;9.10;99647.00;;;;5032950;28;20499;-68
2024/02/01 05:30:42;;;;;;;6.57;4.45;;;;;9.10;99641.00;;;;5034307;28;20041;-69
2024/02/01 05:33:09;;;;;;;8.00;4.97;;;;;9.10;99642.00;;;;5033936;28;20060;-70
2024/02/01 05:35:36;;;;;;;6.38;4.15;;;;;9.10;99637.00;;;;5033057;28;20111;-68
2024/02/01 05:38:05;;;;;;;6.63;4.32;;;;;9.10;99650.00;;;;5033463;28;20421;-68
2024/02/01 05:40:32;;;;;;;7.13;4.75;;;;;9.10;99641.00;;;;5033329;28;20103;-69
2024/02/01 05:43:01;;;;;;;10.23;4.85;;;;;9.10;99629.00;;;;5031784;28;20457;-69
2024/02/01 05:45:28;;;;;;;10.32;5.32;;;;;9.20;99640.00;;;;5032964;28;20076;-69
2024/02/01 05:47:57;;;;;;;6.25;4.03;;;;;9.20;99644.00;;;;5032118;28;20043;-69
2024/02/01 05:50:24;;;;;;;6.32;4.38;;;;;9.20;99628.00;;;;5032807;28;20049;-69
2024/02/01 05:52:50;;;;;;;14.90;5.30;;;;;9.20;99639.00;;;;5015580;28;20060;-68
2024/02/01 05:55:17;;;;;;;8.85;4.93;;;;;9.20;99641.00;;;;5031408;28;20050;-70
2024/02/01 05:57:43;;;;;;;6.00;4.18;;;;;9.20;99635.00;;;;5031824;28;20578;-70
2024/02/01 06:00:11;;;;;;;5.95;4.00;;;;;9.30;99630.00;;;;5033009;28;20386;-69
2024/02/01 06:02:39;;;;;;;5.82;4.90;;;;;9.20;99635.00;;;;5033483;28;20056;-68
2024/02/01 06:05:06;;;;;;;7.38;4.53;;;;;9.20;99631.00;;;;5033159;28;20403;-70
2024/02/01 06:07:33;;;;;;;4.82;3.85;;;;;9.30;99628.00;;;;5032053;28;20052;-68
2024/02/01 06:10:00;;;;;;;10.85;4.78;;;;;9.30;99637.00;;;;5032951;28;20061;-66
2024/02/01 06:12:29;;;;;;;8.05;5.07;;;;;9.40;99647.00;;;;5033858;28;20038;-68
2024/02/01 06:15:01;;;;;;;5.53;4.30;;;;;9.40;99640.00;;;;5032620;28;20045;-68
2024/02/01 06:17:28;;;;;;;7.43;3.97;;;;;9.30;99630.00;;;;5033097;28;20557;-68
2024/02/01 06:19:55;;;;;;;6.15;4.13;;;;;9.40;99635.00;;;;5031822;28;20056;-68
2024/02/01 06:22:22;;;;;;;6.50;4.80;;;;;9.40;99620.00;;;;5033028;28;20286;-72
2024/02/01 06:24:49;;;;;;;9.15;4.95;;;;;9.40;99631.00;;;;5032463;28;20045;-69
2024/02/01 06:27:15;;;;;;;7.82;5.18;;;;;9.40;99634.00;;;;5032118;28;20045;-69
2024/02/01 06:29:42;;;;;;;6.78;3.80;;;;;9.30;99639.00;;;;5032954;28;20733;-67
2024/02/01 06:32:19;;;;;;;6.82;4.22;;;;;9.30;99637.00;;;;5031537;28;20046;-68
2024/02/01 06:34:53;;;;;;;5.55;3.67;;;;;9.40;99635.00;;;;5031845;28;20038;-69
2024/02/01 06:37:21;;;;;;;4.93;3.67;;;;;9.40;99632.00;;;;5032623;28;20068;-68
2024/02/01 06:40:10;;;;;;;8.98;4.70;;;;;9.50;99629.00;;;;5032224;28;20046;-68
2024/02/01 06:45:32;;;;;;;8.05;4.57;;;;;9.50;99630.00;;;;5031655;28;20045;-70
2024/02/01 06:48:04;;;;;;;6.57;5.10;;;;;9.40;99630.00;;;;5032490;28;20120;-68
2024/02/01 06:53:23;;;;;;;5.57;4.20;;;;;9.50;99630.00;;;;5033694;28;20042;-68
2024/02/01 06:56:07;;;;;;;4.80;3.83;;;;;9.50;99631.00;;;;5033241;28;20117;-68
2024/02/01 06:58:47;;;;;;;5.20;3.95;;;;;9.60;99641.00;;;;5035530;28;20049;-71
2024/02/01 07:01:32;;;;;;;5.30;3.70;;;;;9.60;99654.00;;;;5034057;28;20061;-69
2024/02/01 07:04:20;;;;;;;6.65;4.10;;;;;9.70;99647.00;;;;5033498;28;20372;-69
2024/02/01 07:07:17;;;;;;;6.22;3.70;;;;;9.70;99648.00;;;;5033534;28;20517;-68
2024/02/01 07:09:57;;;;;;;5.68;4.45;;;;;9.70;99647.00;;;;5031434;28;20092;-69
2024/02/01 07:12:42;;;;;;;5.13;3.65;;;;;9.80;99653.00;;;;5031668;28;20053;-69
2024/02/01 07:17:58;;;;;;;6.80;4.18;;;;;9.80;99658.00;;;;5033333;28;20105;-70
2024/02/01 07:20:35;;;;;;;4.95;3.30;;;;;9.90;99675.00;;;;5031661;28;20045;-67
2024/02/01 07:26:02;;;;;;;4.95;3.50;;;;;10.00;99685.00;;;;5032582;28;20038;-67
2024/02/01 07:58:52;;;;;;;4.85;4.38;;;;;10.20;99699.00;;;;5046094;28;20136;-67
2024/02/01 08:01:21;;;;;;;5.20;4.38;;;;;10.20;99715.00;;;;5048368;28;20045;-67
2024/02/01 08:09:14;;;;;;;5.45;4.93;;;;;10.00;99713.00;;;;5046206;28;20538;-66
2024/02/01 08:11:42;;;;;;;6.38;5.03;;;;;10.00;99718.00;;;;5042134;28;20045;-66
2024/02/01 08:14:13;;;;;;;6.63;5.78;;;;;10.00;99725.00;;;;5039121;28;20131;-66
2024/02/01 08:16:41;;;;;;;7.45;5.50;;;;;10.10;99719.00;;;;5035167;28;20482;-66
2024/02/01 08:19:08;;;;;;;7.60;5.28;;;;;10.10;99718.00;;;;5036211;28;20119;-65
2024/02/01 08:21:45;;;;;;;6.32;5.05;;;;;10.20;99724.00;;;;5037572;28;20482;-65
2024/02/01 08:24:12;;;;;;;6.47;5.35;;;;;10.20;99728.00;;;;5035986;28;20041;-66
2024/02/01 08:26:39;;;;;;;7.82;5.90;;;;;10.20;99725.00;;;;5037178;28;20054;-66
2024/02/01 08:29:07;;;;;;;6.25;4.93;;;;;10.20;99737.00;;;;5038340;28;20516;-65
2024/02/01 08:31:36;;;;;;;6.15;5.55;;;;;10.20;99743.00;;;;5035143;28;20061;-65
2024/02/01 08:34:05;;;;;;;6.35;5.57;;;;;10.20;99748.00;;;;5038785;28;20133;-65
2024/02/01 08:36:32;;;;;;;6.45;5.82;;;;;10.20;99746.00;;;;5041113;28;20049;-65
2024/02/01 08:38:59;;;;;;;6.38;5.35;;;;;10.30;99753.00;;;;5018391;28;20544;-65
2024/02/01 08:41:35;;;;;;;6.10;5.45;;;;;10.30;99757.00;;;;5034319;28;20095;-65
2024/02/01 08:44:02;;;;;;;7.32;6.15;;;;;10.30;99753.00;;;;5033736;28;20155;-66
2024/02/01 08:46:29;;;;;;;9.00;6.15;;;;;10.30;99758.00;;;;5034306;28;20073;-66
2024/02/01 08:48:55;;;;;;;8.57;5.82;;;;;10.30;99752.00;;;;5033907;28;20045;-65
2024/02/01 08:51:23;;;;;;;8.65;5.80;;;;;10.30;99755.00;;;;5033581;28;20046;-64
2024/02/01 08:53:50;;;;;;;7.93;6.05;;;;;10.30;99753.00;;;;5033610;28;20041;-65
2024/02/01 08:56:17;;;;;;;10.05;6.65;;;;;10.40;99762.00;;;;5034080;28;20038;-64
2024/02/01 08:58:43;;;;;;;7.30;6.05;;;;;10.40;99777.00;;;;5047408;28;20063;-66
2024/02/01 09:01:22;;;;;;;8.05;6.85;;;;;10.30;99765.00;;;;5052641;28;20072;-65
2024/02/01 09:03:50;;;;;;;8.48;6.40;;;;;10.40;99766.00;;;;5053307;28;20045;-66
2024/02/01 09:06:17;;;;;;;10.15;6.97;;;;;10.40;99767.00;;;;5052714;28;20664;-66
2024/02/01 09:08:44;;;;;;;8.32;6.97;;;;;10.50;99768.00;;;;5052753;28;20521;-64
2024/02/01 09:11:12;;;;;;;8.88;7.25;;;;;10.50;99775.00;;;;5053661;28;20047;-64
2024/02/01 09:13:44;;;;;;;10.90;8.50;;;;;10.40;99778.00;;;;5053493;28;20505;-64
2024/02/01 09:16:11;;;;;;;8.68;7.22;;;;;10.40;99783.00;;;;5053839;28;20048;-65
2024/02/01 09:18:38;;;;;;;9.35;7.35;;;;;10.50;99769.00;;;;5053716;28;20076;-64
2024/02/01 09:21:07;;;;;;;12.48;8.10;;;;;10.60;99773.00;;;;5053675;28;20040;-64
2024/02/01 09:23:33;;;;;;;11.68;7.53;;;;;10.70;99769.00;;;;5053437;28;20057;-64
2024/02/01 09:26:00;;;;;;;10.60;6.95;;;;;10.70;99770.00;;;;5053332;28;20039;-65
2024/02/01 09:28:27;;;;;;;10.98;7.53;;;;;10.70;99767.00;;;;5053507;28;20065;-65
2024/02/01 09:30:55;;;;;;;6.43;5.82;;;;;10.90;99779.00;;;;5053447;28;20052;-65
2024/02/01 09:33:28;;;;;;;9.05;6.60;;;;;11.00;99779.00;;;;5051878;28;20134;-64
2024/02/01 09:35:56;;;;;;;8.55;6.55;;;;;11.00;99783.00;;;;5053356;28;20045;-65
2024/02/01 09:38:23;;;;;;;6.50;5.65;;;;;11.00;99771.00;;;;5052167;28;20123;-65
2024/02/01 09:40:50;;;;;;;9.02;6.95;;;;;11.20;99785.00;;;;5053258;28;20049;-65
2024/02/01 09:43:17;;;;;;;7.00;5.85;;;;;11.10;99780.00;;;;5053053;28;20494;-65
2024/02/01 09:45:44;;;;;;;13.90;9.27;;;;;11.10;99794.00;;;;5052556;28;20569;-65
2024/02/01 09:48:16;;;;;;;7.60;6.78;;;;;11.10;99790.00;;;;5051849;28;20516;-64
2024/02/01 09:50:53;;;;;;;9.13;7.03;;;;;11.10;99797.00;;;;5053036;28;20049;-64
2024/02/01 09:53:22;;;;;;;9.45;7.85;;;;;11.10;99792.00;;;;5052897;28;20542;-64
2024/02/01 09:55:52;;;;;;;8.98;6.85;;;;;11.10;99799.00;;;;5051443;28;20072;-64
2024/02/01 09:58:20;;;;;;;11.18;9.07;;;;;11.10;99801.00;;;;5052626;28;20072;-64
2024/02/01 10:00:48;;;;;;;9.23;8.23;;;;;11.10;99805.00;;;;5052703;28;20052;-64
2024/02/01 10:03:22;;;;;;;7.45;6.35;;;;;11.10;99805.00;;;;5052737;28;20053;-64
2024/02/01 10:05:50;;;;;;;7.68;6.03;;;;;11.20;99809.00;;;;5052804;28;20693;-65
2024/02/01 10:08:18;;;;;;;6.93;6.32;;;;;11.20;99802.00;;;;5052796;28;20505;-64
2024/02/01 10:10:46;;;;;;;7.13;5.80;;;;;11.20;99804.00;;;;5052676;28;20041;-64
2024/02/01 10:13:19;;;;;;;7.32;4.78;;;;;11.30;99798.00;;;;5051334;28;20422;-63
2024/02/01 10:15:48;;;;;;;8.00;5.60;;;;;11.50;99803.00;;;;5052467;28;20505;-64
2024/02/01 10:18:19;;;;;;;6.07;4.93;;;;;11.60;99799.00;;;;5051558;28;20417;-64
2024/02/01 10:20:51;;;;;;;6.10;4.93;;;;;11.70;99798.00;;;;5052737;28;20501;-67
2024/02/01 10:23:21;;;;;;;7.45;5.50;;;;;11.80;99799.00;;;;5052755;28;20083;-66
2024/02/01 10:25:55;;;;;;;7.85;5.47;;;;;11.80;99799.00;;;;5052605;28;20111;-66
2024/02/01 10:28:26;;;;;;;8.38;5.68;;;;;12.00;99800.00;;;;5052428;28;20379;-66
2024/02/01 10:30:52;;;;;;;4.88;4.20;;;;;12.20;99819.00;;;;5052250;28;20045;-66
2024/02/01 10:33:26;;;;;;;4.93;3.75;;;;;12.30;99829.00;;;;5052325;28;20074;-67
2024/02/01 10:35:59;;;;;;;8.23;3.75;;;;;12.20;99825.00;;;;5052265;28;20053;-65
2024/02/01 10:38:26;;;;;;;3.58;3.28;;;;;12.20;99822.00;;;;5050083;28;20383;-61
2024/02/01 10:40:59;;;;;;;3.50;3.20;;;;;12.20;99819.00;;;;5049637;28;20049;-63
2024/02/01 10:43:29;;;;;;;4.05;3.58;;;;;12.20;99824.00;;;;5050151;28;20559;-63
2024/02/01 10:46:08;;;;;;;3.97;3.58;;;;;12.10;99819.00;;;;5050839;28;20090;-63
2024/02/01 10:48:52;;;;;;;4.28;3.20;;;;;12.00;99823.00;;;;5052321;28;20076;-63
2024/02/01 10:51:20;;;;;;;3.55;3.22;;;;;11.80;99817.00;;;;5051892;28;20045;-62
2024/02/01 10:53:47;;;;;;;5.50;3.00;;;;;11.80;99811.00;;;;5051444;28;20094;-63
2024/02/01 10:56:16;;;;;;;4.20;3.05;;;;;11.80;99803.00;;;;5050611;28;20041;-63
2024/02/01 10:58:45;;;;;;;3.15;2.85;;;;;11.90;99800.00;;;;5051915;28;20052;-63
2024/02/01 11:01:14;;;;;;;3.17;2.88;;;;;12.00;99803.00;;;;5052961;28;20076;-62
2024/02/01 11:04:12;;;;;;;4.57;3.38;;;;;12.00;99805.00;;;;5051562;28;20055;-61
2024/02/01 11:06:46;;;;;;;4.20;2.90;;;;;11.90;99807.00;;;;5052023;28;20524;-62
2024/02/01 11:09:19;;;;;;;3.08;2.83;;;;;11.90;99808.00;;;;5052347;28;20048;-60
2024/02/01 11:11:52;;;;;;;3.75;2.60;;;;;11.80;99812.00;;;;5052239;28;20132;-62
2024/02/01 11:14:24;;;;;;;3.33;2.35;;;;;11.70;99812.00;;;;5055586;28;20128;-61
2024/02/01 11:16:53;;;;;;;3.53;2.42;;;;;11.80;99807.00;;;;5056228;28;20116;-62
2024/02/01 11:19:24;;;;;;;2.78;2.58;;;;;12.00;99805.00;;;;5055818;28;20119;-62
2024/02/01 11:21:57;;;;;;;2.95;2.65;;;;;12.20;99796.00;;;;5056307;28;20489;-62
2024/02/01 11:24:29;;;;;;;4.40;3.10;;;;;12.30;99792.00;;;;5056028;28;20049;-62
2024/02/01 11:26:58;;;;;;;3.92;2.50;;;;;12.30;99799.00;;;;5055552;28;20117;-62
2024/02/01 11:29:27;;;;;;;3.13;2.83;;;;;12.30;99798.00;;;;5055977;28;20056;-62
2024/02/01 11:32:00;;;;;;;4.07;3.17;;;;;12.30;99804.00;;;;5056465;28;20037;-62
2024/02/01 11:34:28;;;;;;;3.03;2.72;;;;;12.30;99811.00;;;;5055191;28;20049;-63
2024/02/01 11:36:54;;;;;;;3.63;2.97;;;;;12.30;99826.00;;;;5055553;28;20029;-63
2024/02/01 11:39:22;;;;;;;3.75;2.80;;;;;12.30;99808.00;;;;5055547;28;20132;-63
2024/02/01 11:41:50;;;;;;;3.50;2.60;;;;;12.20;99806.00;;;;5055361;28;20052;-63
2024/02/01 11:44:20;;;;;;;2.40;2.13;;;;;12.30;99819.00;;;;5055186;28;20041;-63
2024/02/01 11:46:53;;;;;;;3.90;2.60;;;;;12.40;99811.00;;;;5056173;28;20099;-62
2024/02/01 11:49:25;;;;;;;2.90;2.47;;;;;12.50;99821.00;;;;5055327;28;20292;-60
2024/02/01 11:52:13;;;;;;;2.70;2.50;;;;;12.70;99823.00;;;;5053962;28;20401;-62
2024/02/01 11:54:46;;;;;;;2.65;2.35;;;;;12.70;99824.00;;;;5055648;28;20045;-63
2024/02/01 11:57:14;;;;;;;;;;;;;12.70;99826.00;;;;5055456;28;20080;-63
2024/02/01 11:59:41;;;;;;;5.05;2.38;;;;;12.60;99833.00;;;;5054938;28;19927;-64
2024/02/01 12:02:08;;;;;;;2.55;2.35;;;;;12.40;99834.00;;;;5055746;28;20121;-62
2024/02/01 12:04:37;;;;;;;4.70;2.70;;;;;12.60;99824.00;;;;5037546;28;20103;-62
2024/02/01 12:07:05;;;;;;;2.60;2.20;;;;;12.60;99830.00;;;;5033437;28;20462;-63
2024/02/01 12:09:33;;;;;;;2.80;2.15;;;;;12.70;99810.00;;;;5034760;28;20099;-62
2024/02/01 12:11:59;;;;;;;2.67;2.38;;;;;12.90;99797.00;;;;5034883;28;20038;-62
2024/02/01 12:14:27;;;;;;;2.20;2.00;;;;;13.10;99794.00;;;;5032898;28;20449;-62
2024/02/01 12:16:55;;;;;;;2.85;2.40;;;;;13.30;99806.00;;;;5033460;28;20124;-62
2024/02/01 12:19:23;;;;;;;3.53;2.22;;;;;13.20;99804.00;;;;5034772;28;20049;-62
2024/02/01 12:21:54;;;;;;;2.15;1.63;;;;;13.20;99812.00;;;;5034456;28;20132;-61
2024/02/01 12:24:27;;;;;;;4.32;2.83;;;;;13.10;99805.00;;;;5032764;28;20073;-63
2024/02/01 12:26:53;;;;;;;3.35;1.85;;;;;13.10;99812.00;;;;5034313;28;20120;-61
2024/02/01 12:29:21;;;;;;;2.35;1.85;;;;;13.20;99810.00;;;;5034439;28;20045;-62
2024/02/01 12:31:49;;;;;;;3.85;2.15;;;;;13.10;99822.00;;;;5033285;28;20041;-62
2024/02/01 12:34:17;;;;;;;3.28;1.85;;;;;13.20;99803.00;;;;5033730;28;20048;-61
2024/02/01 12:36:45;;;;;;;4.07;1.90;;;;;13.50;99795.00;;;;5034082;28;20128;-60
2024/02/01 12:39:13;;;;;;;2.42;1.80;;;;;13.80;99797.00;;;;5037060;28;20041;-61
2024/02/01 12:41:40;;;;;;;4.25;2.30;;;;;13.90;99793.00;;;;5045066;28;20048;-61
2024/02/01 12:44:09;;;;;;;2.08;1.63;;;;;13.80;99789.00;;;;5043262;28;20486;-62
2024/02/01 12:46:36;;;;;;;1.70;1.60;;;;;13.80;99793.00;;;;5042539;28;20128;-61
2024/02/01 12:49:02;;;;;;;1.42;1.30;;;;;13.80;99782.00;;;;5044389;28;20044;-61
2024/02/01 12:51:29;;;;;;;1.80;1.52;;;;;14.00;99785.00;;;;5045178;28;20517;-62
2024/02/01 12:54:00;;;;;;;2.38;1.60;;;;;14.20;99782.00;;;;5043965;28;20099;-60
2024/02/01 12:56:31;;;;;;;2.57;1.43;;;;;14.30;99781.00;;;;5043199;28;20029;-61
2024/02/01 12:59:02;;;;;;;2.67;1.20;;;;;14.30;99777.00;;;;5041905;28;20049;-61
2024/02/01 13:01:32;;;;;;;1.60;1.50;;;;;14.30;99777.00;;;;5043177;28;20044;-60
2024/02/01 13:04:01;;;;;;;1.92;1.80;;;;;14.40;99778.00;;;;5032939;28;20030;-61
2024/02/01 13:06:28;;;;;;;1.52;1.42;;;;;14.40;99772.00;;;;5033221;28;20129;-62
2024/02/01 13:08:55;;;;;;;1.60;1.33;;;;;14.50;99778.00;;;;5033110;28;20087;-62
2024/02/01 13:11:31;;;;;;;2.15;1.52;;;;;14.70;99780.00;;;;5032971;28;20041;-61
2024/02/01 13:13:58;;;;;;;1.63;1.35;;;;;14.60;99782.00;;;;5032499;28;20041;-62
2024/02/01 13:16:26;;;;;;;1.30;1.20;;;;;14.50;99784.00;;;;5033006;28;20133;-62